Terminal Aerodrome Forecast
Issued by NWS

Home | Current Version | Previous Version | Graphics & Text | Print | Product List | Glossary On
Versions: 1 2 3 4 5 6 7 8 9 10 11 12 13 14 15 16 17 18 19 20 21 22 23 24 25 26 27 28 29 30
000
FTUS43 KLOT 230550
TAFDPA
TAF
KDPA 230550Z 2306/2406 VRB03KT P6SM SCT030 BKN050
     FM230700 00000KT 6SM BR FEW010 SCT030
      TEMPO 2309/2313 2SM BR BKN010
     FM231500 19006KT P6SM SCT040 SCT250=

USA.gov is the U.S. government's official web portal to all federal, state and local government web resources and services.